Time;durP1;ratioP1;P1;durP2;ratioP2;P2;SDS_P1;SDS_P2;PMS_P1;PMS_P2;Temp;Humidity;BMP_temperature;BMP_pressure;BME280_temperature;BME280_humidity;BME280_pressure;Samples;Min_cycle;Max_cycle;Signal;HPM_P1;HPM_P2
2022/04/19 00:00:47;;;;;;;11.68;9.90;;;;;;;8.73;63.51;101406.47;4943388;29;20035;-75
2022/04/19 00:03:14;;;;;;;12.52;10.30;;;;;;;8.69;63.53;101410.19;4951062;28;20027;-73
2022/04/19 00:05:41;;;;;;;11.90;10.10;;;;;;;8.63;63.60;101399.22;4950146;28;20031;-74
2022/04/19 00:08:08;;;;;;;14.18;10.52;;;;;;;8.61;64.11;101407.16;4950941;28;20023;-74
2022/04/19 00:10:34;;;;;;;11.32;9.93;;;;;;;8.56;64.16;101403.97;4950771;28;20447;-74
2022/04/19 00:13:02;;;;;;;12.60;10.23;;;;;;;8.52;64.41;101391.97;4947290;29;20063;-74
2022/04/19 00:15:29;;;;;;;13.18;10.57;;;;;;;8.49;64.52;101394.75;4948932;29;20038;-76
2022/04/19 00:17:59;;;;;;;13.40;11.60;;;;;;;8.42;64.51;101396.03;4945306;29;20019;-74
2022/04/19 00:20:26;;;;;;;12.48;10.57;;;;;;;8.41;64.75;101402.22;4949289;29;20023;-74
2022/04/19 00:22:52;;;;;;;15.30;10.43;;;;;;;8.35;65.15;101392.03;4950226;28;20105;-75
2022/04/19 00:25:18;;;;;;;12.27;10.70;;;;;;;8.31;65.18;101393.97;4949485;29;20110;-73
2022/04/19 00:27:44;;;;;;;13.77;10.23;;;;;;;8.27;65.61;101391.59;4964698;28;20036;-73
2022/04/19 00:30:10;;;;;;;13.65;11.50;;;;;;;8.23;65.44;101390.09;4947676;28;20045;-73
2022/04/19 00:32:36;;;;;;;15.48;11.68;;;;;;;8.18;65.55;101385.94;4966722;28;20338;-76
2022/04/19 00:35:03;;;;;;;14.50;12.07;;;;;;;8.15;65.90;101388.72;4954020;29;20416;-73
2022/04/19 00:37:29;;;;;;;12.90;11.15;;;;;;;8.14;65.54;101392.28;4954425;29;20027;-73
2022/04/19 00:39:58;;;;;;;15.43;12.00;;;;;;;8.09;66.24;101383.00;4953004;29;20471;-73
2022/04/19 00:42:28;;;;;;;17.73;11.73;;;;;;;8.05;66.34;101386.72;4953598;28;20538;-73
2022/04/19 00:44:58;;;;;;;12.48;11.20;;;;;;;7.98;66.91;101390.56;4953998;28;20122;-76
2022/04/19 00:47:24;;;;;;;14.45;11.48;;;;;;;7.94;66.40;101384.66;4950837;29;20361;-73
2022/04/19 00:49:49;;;;;;;15.27;11.35;;;;;;;7.95;66.43;101385.50;4950359;29;20543;-76
2022/04/19 00:52:15;;;;;;;12.50;11.20;;;;;;;7.94;66.51;101383.81;4952884;29;20039;-73
2022/04/19 00:54:44;;;;;;;13.27;10.57;;;;;;;7.90;66.21;101383.13;4953377;29;20031;-74
2022/04/19 00:57:10;;;;;;;12.48;11.00;;;;;;;7.88;66.68;101392.00;4954001;29;20031;-74
2022/04/19 00:59:36;;;;;;;12.63;11.32;;;;;;;7.84;67.46;101388.69;4976882;28;20494;-74
2022/04/19 01:02:02;;;;;;;13.35;11.32;;;;;;;7.83;67.34;101384.41;4953507;29;20039;-74
2022/04/19 01:04:27;;;;;;;13.65;10.73;;;;;;;7.80;67.25;101382.78;4949291;29;20532;-75
2022/04/19 01:06:53;;;;;;;13.88;11.50;;;;;;;7.78;67.20;101383.81;4953807;29;20062;-73
2022/04/19 01:09:20;;;;;;;13.02;11.07;;;;;;;7.78;67.60;101389.03;4984175;28;20045;-73
2022/04/19 01:14:31;;;;;;;12.77;10.93;;;;;;;7.74;68.40;101387.50;4952844;29;20038;-73
2022/04/19 01:16:57;;;;;;;13.95;10.93;;;;;;;7.75;68.31;101378.72;4951775;29;20114;-74
2022/04/19 01:19:23;;;;;;;12.40;10.75;;;;;;;7.70;68.19;101380.75;4953025;28;20031;-73
2022/04/19 01:21:54;;;;;;;17.33;10.82;;;;;;;7.63;68.32;101379.38;4949235;29;20854;-73
2022/04/19 01:24:21;;;;;;;12.20;10.02;;;;;;;7.59;68.21;101377.84;4950711;29;20035;-74
2022/04/19 01:26:49;;;;;;;13.95;10.75;;;;;;;7.55;68.84;101372.75;4951604;29;20027;-74
2022/04/19 01:29:15;;;;;;;12.48;10.10;;;;;;;7.52;68.67;101367.69;4950595;29;20170;-74
2022/04/19 01:31:43;;;;;;;12.25;10.35;;;;;;;7.51;68.43;101368.63;4953005;29;20039;-74
2022/04/19 01:34:09;;;;;;;13.77;10.77;;;;;;;7.49;68.99;101367.84;4952613;29;20424;-74
2022/04/19 01:36:36;;;;;;;12.45;10.55;;;;;;;7.46;69.01;101368.00;4983236;28;20033;-74
2022/04/19 01:39:06;;;;;;;13.60;10.60;;;;;;;7.46;69.15;101377.63;4946462;28;20476;-74
2022/04/19 01:41:32;;;;;;;16.92;11.75;;;;;;;7.41;69.17;101375.28;4953053;29;20035;-74
2022/04/19 01:43:59;;;;;;;14.95;10.73;;;;;;;7.40;69.21;101378.81;4967483;28;20479;-74
2022/04/19 01:46:31;;;;;;;14.43;12.07;;;;;;;7.37;69.37;101376.34;4953913;28;20520;-75
2022/04/19 01:48:57;;;;;;;17.13;12.52;;;;;;;7.32;69.70;101365.28;4953444;28;20113;-75
2022/04/19 01:51:24;;;;;;;16.60;13.02;;;;;;;7.28;69.48;101369.00;4983790;28;20043;-75
2022/04/19 01:53:50;;;;;;;15.05;12.48;;;;;;;7.27;69.79;101366.44;4953742;29;20039;-75
2022/04/19 01:56:17;;;;;;;15.82;12.25;;;;;;;7.22;69.94;101369.31;4949794;29;20405;-75
2022/04/19 01:58:43;;;;;;;14.25;11.80;;;;;;;7.17;70.01;101363.44;4952853;28;20046;-75
2022/04/19 02:01:09;;;;;;;13.07;11.65;;;;;;;7.17;70.20;101366.06;4949828;28;20031;-75
2022/04/19 02:03:34;;;;;;;14.43;11.60;;;;;;;7.12;70.07;101374.16;4951688;29;20377;-75
2022/04/19 02:06:00;;;;;;;13.65;11.85;;;;;;;7.09;70.76;101373.47;4951754;29;20090;-75
2022/04/19 02:08:27;;;;;;;13.18;11.35;;;;;;;7.06;70.94;101369.22;4952999;28;20047;-75
2022/04/19 02:10:53;;;;;;;17.65;12.00;;;;;;;7.00;70.73;101359.09;4952061;29;20024;-75
2022/04/19 02:13:20;;;;;;;14.55;11.55;;;;;;;7.01;70.83;101366.00;4945825;29;20123;-75
2022/04/19 02:15:46;;;;;;;17.98;11.73;;;;;;;6.98;70.79;101365.31;4951809;29;20482;-75
2022/04/19 02:18:12;;;;;;;13.70;11.55;;;;;;;6.94;70.56;101367.25;4951085;28;20467;-75
2022/04/19 02:20:38;;;;;;;14.80;11.73;;;;;;;6.93;70.65;101362.09;4951353;29;20035;-75
2022/04/19 02:23:04;;;;;;;17.10;12.23;;;;;;;6.90;70.88;101363.09;4951715;29;20514;-75
2022/04/19 02:25:29;;;;;;;13.15;11.75;;;;;;;6.87;70.65;101358.88;4950037;29;20122;-77
2022/04/19 02:27:55;;;;;;;13.43;12.00;;;;;;;6.82;71.10;101350.41;4951925;28;20019;-75
2022/04/19 02:30:20;;;;;;;15.90;12.35;;;;;;;6.82;71.09;101363.50;4947009;28;20118;-75
2022/04/19 02:32:47;;;;;;;15.77;13.43;;;;;;;6.78;70.92;101356.69;4949385;29;20058;-77
2022/04/19 02:35:21;;;;;;;16.20;13.95;;;;;;;6.75;71.57;101359.47;4951461;29;20105;-75
2022/04/19 02:37:48;;;;;;;16.20;13.63;;;;;;;6.74;70.85;101356.91;4982165;28;20109;-75
2022/04/19 02:40:13;;;;;;;15.60;13.70;;;;;;;6.70;71.69;101353.63;4950797;29;20231;-74
2022/04/19 02:42:42;;;;;;;16.75;14.43;;;;;;;6.64;71.71;101348.69;4950478;29;20031;-75
2022/04/19 02:45:08;;;;;;;17.08;14.57;;;;;;;6.62;71.55;101353.16;4941884;29;20475;-75
2022/04/19 02:47:34;;;;;;;16.52;13.98;;;;;;;6.59;72.23;101353.31;4950912;29;20509;-73
2022/04/19 02:50:01;;;;;;;16.42;14.07;;;;;;;6.55;71.99;101346.53;4952000;29;20023;-75
2022/04/19 02:52:28;;;;;;;17.52;14.07;;;;;;;6.52;71.83;101344.94;4951882;28;20027;-73
2022/04/19 02:54:53;;;;;;;17.58;13.98;;;;;;;6.49;72.24;101347.69;4950916;28;20231;-74
2022/04/19 02:57:19;;;;;;;17.60;14.38;;;;;;;6.44;71.74;101344.47;4952134;29;20019;-74
2022/04/19 02:59:45;;;;;;;15.70;14.07;;;;;;;6.47;72.53;101343.47;4951068;28;20051;-74
2022/04/19 03:02:12;;;;;;;17.00;15.00;;;;;;;6.45;72.13;101345.31;4949268;29;20039;-74
2022/04/19 03:04:38;;;;;;;19.13;14.45;;;;;;;6.37;72.38;101337.81;4952124;28;20023;-74
2022/04/19 03:07:05;;;;;;;17.25;13.90;;;;;;;6.37;72.61;101339.56;4948936;29;20067;-74
2022/04/19 03:09:31;;;;;;;16.02;14.32;;;;;;;6.38;72.71;101338.66;4952392;29;20027;-74
2022/04/19 03:11:56;;;;;;;17.63;14.68;;;;;;;6.34;72.76;101342.34;4951320;29;20042;-74
2022/04/19 03:14:22;;;;;;;17.23;15.00;;;;;;;6.31;72.50;101337.25;4950897;28;20057;-74
2022/04/19 03:16:47;;;;;;;18.23;14.82;;;;;;;6.28;72.80;101338.25;4951071;29;20110;-75
2022/04/19 03:19:13;;;;;;;17.33;15.25;;;;;;;6.28;72.95;101339.09;4947380;29;20020;-75
2022/04/19 03:21:42;;;;;;;16.83;15.13;;;;;;;6.26;73.20;101343.56;4950416;29;20027;-75
2022/04/19 03:29:35;;;;;;;18.92;14.90;;;;;;;6.13;73.13;101345.06;4944057;29;20050;-76
2022/04/19 03:32:01;;;;;;;17.27;15.18;;;;;;;6.07;73.43;101345.38;4950639;28;20039;-74
2022/04/19 03:34:26;;;;;;;17.55;14.93;;;;;;;6.02;73.73;101343.91;4950476;29;20034;-74
2022/04/19 03:36:52;;;;;;;18.83;15.30;;;;;;;6.00;74.26;101349.16;4948201;28;20037;-75
2022/04/19 03:39:18;;;;;;;19.30;15.20;;;;;;;5.96;74.23;101356.31;4950602;29;20330;-74
2022/04/19 03:41:43;;;;;;;19.48;15.40;;;;;;;5.93;73.37;101358.22;4950026;29;20071;-74
2022/04/19 03:44:11;;;;;;;18.48;15.85;;;;;;;5.91;74.32;101349.59;4950321;29;20027;-74
2022/04/19 03:47:07;;;;;;;17.40;14.93;;;;;;;5.88;74.54;101345.34;4950707;29;20028;-73
2022/04/19 03:49:21;;;;;;;17.45;15.18;;;;;;;5.85;74.61;101349.84;4949365;29;20039;-74
2022/04/19 03:51:47;;;;;;;17.92;15.10;;;;;;;5.82;74.52;101348.25;4947492;28;20123;-74
2022/04/19 03:54:13;;;;;;;16.90;14.88;;;;;;;5.79;74.61;101345.78;4947658;29;20034;-74
2022/04/19 03:56:38;;;;;;;17.60;15.60;;;;;;;5.76;74.76;101340.69;4950121;29;20023;-74
2022/04/19 03:59:09;;;;;;;19.60;15.73;;;;;;;5.74;75.12;101347.75;4950422;28;20123;-74
2022/04/19 04:01:37;;;;;;;19.02;15.48;;;;;;;5.72;75.02;101353.97;4946164;29;20058;-73
2022/04/19 04:04:08;;;;;;;19.63;16.50;;;;;;;5.69;74.49;101343.66;4946820;29;20065;-74
2022/04/19 04:06:36;;;;;;;18.92;16.23;;;;;;;5.69;75.06;101361.94;4950384;28;20039;-74
2022/04/19 04:09:02;;;;;;;20.58;16.48;;;;;;;5.68;75.05;101352.41;4950971;29;20426;-74
2022/04/19 04:11:27;;;;;;;18.63;16.08;;;;;;;5.67;75.22;101356.78;4952121;29;20035;-74
2022/04/19 04:13:53;;;;;;;21.27;16.08;;;;;;;5.63;74.85;101356.06;4953918;29;20229;-74
2022/04/19 04:16:18;;;;;;;20.73;16.33;;;;;;;5.61;74.78;101360.53;4954892;29;20031;-75
2022/04/19 04:18:43;;;;;;;22.67;16.67;;;;;;;5.57;75.10;101355.47;4954055;29;20035;-75
2022/04/19 04:21:13;;;;;;;20.25;16.75;;;;;;;5.54;75.26;101355.63;4985595;28;20027;-75
2022/04/19 04:23:42;;;;;;;22.92;17.38;;;;;;;5.52;75.32;101357.44;4954613;29;20042;-75
2022/04/19 04:26:07;;;;;;;21.05;17.35;;;;;;;5.49;75.99;101355.81;4965474;28;20082;-75
2022/04/19 04:28:32;;;;;;;18.75;16.15;;;;;;;5.47;75.73;101355.06;4954198;29;20035;-75
2022/04/19 04:30:58;;;;;;;22.55;17.50;;;;;;;5.45;75.83;101356.88;4953203;28;20033;-75
2022/04/19 04:33:23;;;;;;;21.45;17.05;;;;;;;5.44;76.03;101360.41;4953958;29;20507;-75
2022/04/19 04:35:48;;;;;;;19.15;17.02;;;;;;;5.42;75.73;101356.19;4953463;29;20106;-75
2022/04/19 04:38:14;;;;;;;22.98;16.75;;;;;;;5.41;75.60;101359.69;4951390;29;20477;-75
2022/04/19 04:40:39;;;;;;;20.00;16.75;;;;;;;5.39;76.19;101357.16;4967855;28;20031;-75
2022/04/19 04:43:05;;;;;;;20.52;17.13;;;;;;;5.41;76.26;101359.69;4949303;29;20403;-75
2022/04/19 04:45:30;;;;;;;20.73;17.10;;;;;;;5.41;76.12;101360.53;4965409;28;20023;-75
2022/04/19 04:50:39;;;;;;;18.13;15.73;;;;;;;5.37;75.89;101359.00;4952994;29;20427;-75
2022/04/19 04:53:05;;;;;;;23.60;17.33;;;;;;;5.38;76.36;101363.28;4952601;29;20027;-74
2022/04/19 04:55:30;;;;;;;21.17;15.93;;;;;;;5.38;75.80;101367.66;4953958;29;20039;-74
2022/04/19 04:57:58;;;;;;;22.48;17.10;;;;;;;5.35;75.75;101361.66;4952041;29;20031;-74
2022/04/19 05:00:27;;;;;;;21.35;16.80;;;;;;;5.36;75.41;101362.50;4948573;28;20504;-74
2022/04/19 05:02:53;;;;;;;20.35;16.55;;;;;;;5.38;76.30;101360.69;4952121;29;20122;-75
2022/04/19 05:05:18;;;;;;;21.95;16.85;;;;;;;5.41;76.21;101362.31;4952380;28;20509;-75
2022/04/19 05:07:44;;;;;;;21.15;16.80;;;;;;;5.41;75.90;101354.47;4950745;29;20125;-74
2022/04/19 05:10:09;;;;;;;21.63;17.17;;;;;;;5.43;76.17;101366.53;4953090;28;20023;-75
2022/04/19 05:12:35;;;;;;;24.80;17.10;;;;;;;5.47;75.10;101362.88;4968125;28;20495;-75
2022/04/19 05:15:01;;;;;;;20.77;17.35;;;;;;;5.51;75.27;101364.44;4952211;28;20554;-75
2022/04/19 05:17:26;;;;;;;22.95;17.15;;;;;;;5.50;75.77;101360.13;4952355;28;20039;-75
2022/04/19 05:19:54;;;;;;;22.20;17.20;;;;;;;5.56;74.70;101370.28;4943154;28;20074;-75
2022/04/19 05:22:19;;;;;;;26.08;17.85;;;;;;;5.60;74.33;101376.22;4965498;28;20019;-75
2022/04/19 05:24:45;;;;;;;24.40;18.30;;;;;;;5.68;72.57;101375.91;4952226;29;20027;-75
2022/04/19 05:27:10;;;;;;;22.40;18.10;;;;;;;5.78;73.95;101371.94;4952198;29;20054;-75
2022/04/19 05:29:37;;;;;;;27.17;18.45;;;;;;;5.84;73.39;101371.66;4952299;28;20110;-75
2022/04/19 05:32:02;;;;;;;24.92;18.95;;;;;;;5.93;72.93;101384.31;4952327;29;20031;-75
2022/04/19 05:34:28;;;;;;;24.10;18.38;;;;;;;6.01;71.68;101376.16;4951418;29;20039;-75
2022/04/19 05:36:53;;;;;;;26.33;18.05;;;;;;;6.09;71.74;101364.44;4950524;29;20394;-75
2022/04/19 05:39:18;;;;;;;23.67;18.10;;;;;;;6.22;70.98;101376.00;4951004;29;20019;-75
2022/04/19 05:41:43;;;;;;;25.30;18.45;;;;;;;6.31;70.84;101368.63;4950367;29;20039;-75
2022/04/19 05:44:09;;;;;;;27.67;18.70;;;;;;;6.38;70.59;101367.41;4951042;29;20165;-73
2022/04/19 05:46:36;;;;;;;23.23;18.58;;;;;;;6.47;70.04;101367.00;4951530;29;20702;-74
2022/04/19 05:49:04;;;;;;;31.13;18.63;;;;;;;6.59;69.41;101369.00;4950322;29;20027;-74
2022/04/19 05:51:30;;;;;;;24.55;18.30;;;;;;;6.69;69.33;101370.22;4950930;28;20526;-74
2022/04/19 05:53:55;;;;;;;27.77;19.63;;;;;;;6.80;68.68;101372.31;4948871;29;20098;-74
2022/04/19 05:56:20;;;;;;;25.25;19.10;;;;;;;6.88;68.12;101373.63;4964786;28;20114;-75
2022/04/19 05:58:46;;;;;;;28.05;19.05;;;;;;;7.01;67.57;101380.84;4909045;28;1259068;-74
2022/04/19 06:01:11;;;;;;;24.10;18.08;;;;;;;7.09;67.02;101383.94;4950188;29;20047;-75
2022/04/19 06:06:22;;;;;;;24.40;18.20;;;;;;;7.32;66.23;101380.16;4951985;29;20038;-74
2022/04/19 06:08:47;;;;;;;29.20;17.92;;;;;;;7.42;66.62;101382.19;4950099;29;20042;-74
2022/04/19 06:11:13;;;;;;;25.30;17.88;;;;;;;7.51;65.92;101383.47;4951417;29;20015;-74
2022/04/19 06:13:40;;;;;;;24.23;17.67;;;;;;;7.63;65.69;101389.88;4952247;29;20082;-74
2022/04/19 06:16:06;;;;;;;23.80;16.83;;;;;;;7.72;65.03;101384.13;4948360;28;20023;-74
2022/04/19 06:18:32;;;;;;;20.20;16.20;;;;;;;7.82;64.12;101395.81;4950561;29;20399;-74
2022/04/19 06:20:58;;;;;;;21.92;16.65;;;;;;;7.93;64.22;101385.59;4952119;29;20019;-74
2022/04/19 06:23:28;;;;;;;21.20;15.77;;;;;;;8.04;63.14;101387.63;4952172;29;20037;-74
2022/04/19 06:25:53;;;;;;;21.05;15.63;;;;;;;8.15;62.69;101388.72;4951796;28;20224;-74
2022/04/19 06:28:20;;;;;;;21.67;16.02;;;;;;;8.24;62.22;101390.00;4951909;28;20475;-74
2022/04/19 06:30:46;;;;;;;21.13;16.02;;;;;;;8.35;62.12;101392.03;4949756;28;20039;-74
2022/04/19 06:33:11;;;;;;;22.30;15.80;;;;;;;8.45;61.15;101388.00;4951391;29;20020;-74
2022/04/19 06:35:37;;;;;;;20.58;14.70;;;;;;;8.54;61.31;101390.09;4951786;28;20038;-75
2022/04/19 06:38:02;;;;;;;22.17;16.02;;;;;;;8.61;60.31;101380.09;4951421;29;20463;-75
2022/04/19 06:40:28;;;;;;;21.25;15.80;;;;;;;8.74;60.26;101384.53;4951421;28;20035;-74
2022/04/19 06:42:57;;;;;;;20.00;15.15;;;;;;;8.90;59.96;101386.28;4951582;29;20043;-74
2022/04/19 06:45:23;;;;;;;23.67;15.57;;;;;;;9.04;59.91;101397.66;4949889;29;20436;-74
2022/04/19 06:47:59;;;;;;;22.45;14.52;;;;;;;9.16;59.63;101385.59;4951530;29;20102;-75
2022/04/19 06:50:25;;;;;;;20.63;15.02;;;;;;;9.27;59.15;101395.47;4965844;28;20032;-74
2022/04/19 06:52:51;;;;;;;21.25;15.18;;;;;;;9.46;58.65;101395.19;4964841;28;20027;-74
2022/04/19 06:55:19;;;;;;;19.85;14.32;;;;;;;9.59;58.45;101391.72;4950781;29;20038;-74
2022/04/19 06:57:45;;;;;;;21.05;15.20;;;;;;;9.70;58.67;101386.69;4950728;29;20041;-74
2022/04/19 07:00:11;;;;;;;22.08;15.15;;;;;;;9.82;57.57;101395.56;4949682;28;20047;-74
2022/04/19 07:02:36;;;;;;;24.50;16.30;;;;;;;9.95;57.71;101391.25;4947877;29;20043;-74
2022/04/19 07:05:01;;;;;;;21.25;15.13;;;;;;;10.05;57.15;101399.41;4951454;29;20066;-74
2022/04/19 07:07:27;;;;;;;21.13;15.30;;;;;;;10.16;57.42;101401.34;4951133;29;20508;-74
2022/04/19 07:09:52;;;;;;;22.08;14.88;;;;;;;10.28;57.00;101396.19;4951481;29;20756;-74
2022/04/19 07:12:19;;;;;;;22.67;14.90;;;;;;;10.42;57.05;101394.47;4951286;29;20038;-73
2022/04/19 07:14:44;;;;;;;19.55;14.27;;;;;;;10.52;56.61;101396.41;4947890;28;20509;-73
2022/04/19 07:17:09;;;;;;;22.02;14.65;;;;;;;10.65;56.40;101389.41;4950056;28;20058;-72
2022/04/19 07:27:47;;;;;;;21.48;14.50;;;;;;;11.18;55.05;101397.28;4950529;29;20034;-75
2022/04/19 07:30:13;;;;;;;21.63;15.38;;;;;;;11.35;55.18;101393.53;4951362;29;20035;-75
2022/04/19 07:32:42;;;;;;;22.63;14.55;;;;;;;11.48;56.15;101402.25;4950118;29;20031;-74
2022/04/19 07:35:08;;;;;;;19.67;14.07;;;;;;;11.56;54.46;101397.31;4965058;28;20054;-75
2022/04/19 07:37:34;;;;;;;20.55;14.20;;;;;;;11.68;54.31;101404.38;4951577;28;20027;-75
2022/04/19 07:39:59;;;;;;;21.85;13.15;;;;;;;11.83;53.47;101411.25;4951019;29;20031;-74
2022/04/19 07:42:24;;;;;;;19.02;13.02;;;;;;;11.97;54.00;101406.78;4950524;28;20047;-74
2022/04/19 07:44:50;;;;;;;22.48;12.85;;;;;;;12.09;52.68;101409.41;4950736;29;20122;-75
2022/04/19 07:47:15;;;;;;;23.02;12.77;;;;;;;12.20;51.91;101398.09;4951246;29;20023;-78
2022/04/19 07:49:40;;;;;;;20.17;12.60;;;;;;;12.37;52.37;101405.63;4949925;28;20085;-75
2022/04/19 07:52:06;;;;;;;18.83;11.52;;;;;;;12.49;50.78;101399.47;4949867;29;20126;-76
2022/04/19 07:54:31;;;;;;;17.88;12.15;;;;;;;12.66;50.67;101402.66;4943548;28;20023;-73
2022/04/19 07:56:56;;;;;;;16.92;11.75;;;;;;;12.79;49.70;101406.06;4936162;28;20027;-76
2022/04/19 07:59:22;;;;;;;18.05;12.07;;;;;;;12.93;49.56;101397.97;4950126;29;20411;-76
2022/04/19 08:01:47;;;;;;;17.92;11.52;;;;;;;13.07;49.67;101400.41;4949174;29;20039;-73
2022/04/19 08:04:12;;;;;;;18.02;11.60;;;;;;;13.23;49.46;101404.56;4949495;29;20020;-73
2022/04/19 08:06:38;;;;;;;14.77;11.68;;;;;;;13.34;48.48;101401.94;4946757;29;21287;-73
2022/04/19 08:09:07;;;;;;;16.75;11.57;;;;;;;13.45;48.50;101408.09;4953454;28;20035;-74
2022/04/19 08:11:32;;;;;;;15.75;11.38;;;;;;;13.58;47.69;101402.69;4949728;29;20496;-73
2022/04/19 08:13:58;;;;;;;15.27;11.18;;;;;;;13.70;47.63;101399.09;4954870;28;20109;-74
2022/04/19 08:16:23;;;;;;;17.90;11.55;;;;;;;13.83;47.40;101398.97;4955782;28;20031;-74
2022/04/19 08:18:48;;;;;;;16.58;10.80;;;;;;;13.96;47.04;101401.47;4942044;29;20039;-74
2022/04/19 08:21:13;;;;;;;15.07;10.77;;;;;;;14.09;46.35;101392.47;4949981;29;20035;-73
2022/04/19 08:23:42;;;;;;;16.33;10.48;;;;;;;14.22;46.03;101389.66;4964875;28;20480;-73
2022/04/19 08:26:07;;;;;;;16.08;11.43;;;;;;;14.33;45.99;101386.97;4933295;29;20064;-73
2022/04/19 08:28:36;;;;;;;17.05;11.05;;;;;;;14.48;46.73;101389.41;4948656;29;20077;-75
2022/04/19 08:31:01;;;;;;;17.17;10.45;;;;;;;14.60;45.81;101383.09;4946559;29;20083;-75
2022/04/19 08:33:28;;;;;;;15.02;10.50;;;;;;;14.71;45.58;101381.22;4950176;29;20097;-75
2022/04/19 08:35:53;;;;;;;13.15;8.98;;;;;;;14.82;44.48;101377.72;4950131;29;20514;-75
2022/04/19 08:38:18;;;;;;;15.27;9.40;;;;;;;14.91;44.15;101376.94;4950150;29;20106;-76
2022/04/19 08:40:44;;;;;;;14.63;8.88;;;;;;;15.01;43.70;101377.84;4946516;29;20023;-76
2022/04/19 08:43:11;;;;;;;13.60;9.18;;;;;;;15.16;44.50;101382.81;4949001;29;20062;-75
2022/04/19 08:45:37;;;;;;;12.43;8.70;;;;;;;15.25;42.98;101382.06;4947100;29;20028;-76
2022/04/19 08:48:09;;;;;;;15.68;9.23;;;;;;;15.35;43.61;101377.63;4950643;29;20047;-76
2022/04/19 08:50:36;;;;;;;16.83;9.07;;;;;;;15.48;43.25;101378.25;4950800;28;20161;-79
2022/04/19 08:58:30;;;;;;;11.98;8.32;;;;;;;15.83;41.60;101379.69;4953938;29;20118;-74
2022/04/19 09:00:55;;;;;;;14.00;8.15;;;;;;;15.94;41.47;101382.25;4953669;28;20032;-76
2022/04/19 09:03:20;;;;;;;11.27;7.22;;;;;;;15.99;40.54;101380.84;4949802;29;20031;-76
2022/04/19 09:05:52;;;;;;;9.50;6.07;;;;;;;16.13;40.20;101374.34;4951542;29;20031;-76
2022/04/19 09:08:19;;;;;;;9.25;5.85;;;;;;;16.20;39.61;101380.78;4953497;29;20093;-76
2022/04/19 09:10:44;;;;;;;9.30;6.10;;;;;;;16.34;40.12;101368.06;4951783;29;20074;-73
2022/04/19 09:13:12;;;;;;;9.02;6.03;;;;;;;16.44;39.45;101369.78;4950813;29;20038;-74
2022/04/19 09:15:45;;;;;;;12.00;6.53;;;;;;;16.49;39.25;101364.06;4947660;29;20023;-75
2022/04/19 09:18:24;;;;;;;8.55;6.28;;;;;;;16.53;39.17;101357.47;4932843;29;20042;-73
2022/04/19 09:20:53;;;;;;;9.98;6.18;;;;;;;16.63;39.22;101366.28;4947310;29;20030;-73
2022/04/19 09:23:20;;;;;;;9.60;6.60;;;;;;;16.73;39.50;101359.19;4952714;29;20042;-73
2022/04/19 09:25:46;;;;;;;10.07;6.35;;;;;;;16.75;39.03;101357.22;4948845;29;20380;-73
2022/04/19 09:28:16;;;;;;;12.05;7.30;;;;;;;16.83;39.55;101357.38;4951153;29;20019;-75
2022/04/19 09:30:42;;;;;;;11.90;6.93;;;;;;;16.82;38.99;101363.66;4951293;29;20039;-76
2022/04/19 09:33:17;;;;;;;10.63;6.72;;;;;;;16.85;38.18;101352.75;4952794;28;20030;-73
2022/04/19 09:35:53;;;;;;;10.63;7.03;;;;;;;16.96;38.73;101356.22;4934630;29;20035;-74
2022/04/19 09:38:36;;;;;;;10.00;6.60;;;;;;;17.00;39.17;101365.59;4950175;29;20038;-73
2022/04/19 09:41:03;;;;;;;9.77;5.90;;;;;;;17.01;37.33;101364.63;4949441;29;20027;-74
2022/04/19 09:43:29;;;;;;;9.63;6.38;;;;;;;17.11;38.45;101349.47;4953554;28;20159;-77
2022/04/19 09:45:58;;;;;;;9.20;5.93;;;;;;;17.19;37.96;101360.22;4951780;29;20494;-73
2022/04/19 09:48:35;;;;;;;11.40;6.15;;;;;;;17.31;38.58;101351.13;4948322;29;20039;-74
2022/04/19 09:51:12;;;;;;;8.70;5.97;;;;;;;17.38;37.71;101354.88;4952754;29;20035;-74
2022/04/19 09:53:48;;;;;;;9.30;5.75;;;;;;;17.48;37.96;101350.34;4953279;28;20435;-74
2022/04/19 09:56:16;;;;;;;9.20;5.25;;;;;;;17.57;36.56;101359.28;4949160;29;20058;-74
2022/04/19 09:58:44;;;;;;;8.18;4.60;;;;;;;17.60;36.46;101342.16;4949797;28;20075;-74
2022/04/19 10:08:10;;;;;;;6.82;4.85;;;;;;;17.75;37.64;101346.06;4950768;28;20075;-74
2022/04/19 10:09:32;;;;;;;9.68;5.50;;;;;;;17.98;36.54;101342.00;4951713;29;20521;-74
2022/04/19 10:11:58;;;;;;;9.25;5.68;;;;;;;18.02;35.57;101332.75;4949957;29;20019;-73
2022/04/19 10:14:25;;;;;;;11.30;5.80;;;;;;;18.01;35.05;101331.09;4951107;29;20249;-75
2022/04/19 10:16:52;;;;;;;8.48;5.40;;;;;;;18.19;36.52;101332.91;4948634;28;20122;-76
2022/04/19 10:19:19;;;;;;;7.97;5.30;;;;;;;18.27;36.13;101331.16;4955027;28;20042;-76
2022/04/19 10:21:45;;;;;;;8.90;5.50;;;;;;;18.47;36.46;101337.19;4949004;28;20034;-74
2022/04/19 10:24:13;;;;;;;8.40;5.85;;;;;;;18.52;35.83;101336.75;4951207;29;20114;-74
2022/04/19 10:26:46;;;;;;;12.95;5.70;;;;;;;18.52;35.40;101328.75;4956760;28;20085;-74
2022/04/19 10:29:20;;;;;;;11.30;5.50;;;;;;;18.48;35.01;101328.22;4951226;28;20035;-75
2022/04/19 10:31:58;;;;;;;10.43;4.90;;;;;;;18.57;35.28;101342.44;4956653;28;20034;-76
2022/04/19 10:34:25;;;;;;;9.05;5.25;;;;;;;18.64;34.51;101331.03;4951490;28;20035;-75
2022/04/19 10:36:54;;;;;;;9.60;5.75;;;;;;;18.67;34.79;101332.56;4948655;28;20012;-76
2022/04/19 10:39:21;;;;;;;9.98;6.30;;;;;;;18.79;35.19;101332.16;4951377;28;20027;-75
2022/04/19 10:41:58;;;;;;;7.95;6.03;;;;;;;18.85;34.68;101324.56;4948410;29;20094;-76
2022/04/19 10:44:30;;;;;;;10.93;5.95;;;;;;;18.88;33.93;101324.25;4980310;28;20035;-76
2022/04/19 10:47:18;;;;;;;10.57;6.00;;;;;;;18.97;35.23;101328.63;4967265;28;20051;-76
2022/04/19 10:50:07;;;;;;;9.05;6.18;;;;;;;19.17;35.51;101321.25;4951499;29;20035;-76
2022/04/19 10:52:44;;;;;;;12.60;6.90;;;;;;;19.13;33.63;101318.06;4948779;29;20538;-76
2022/04/19 10:55:22;;;;;;;10.02;6.57;;;;;;;19.20;34.54;101313.75;4949200;29;20114;-74
2022/04/19 10:58:09;;;;;;;9.68;5.45;;;;;;;19.16;33.24;101316.91;4946650;29;20067;-74
2022/04/19 11:00:34;;;;;;;11.32;5.43;;;;;;;19.27;34.05;101314.81;4955626;29;20163;-74
2022/04/19 11:03:14;;;;;;;9.82;5.22;;;;;;;19.35;35.05;101306.84;4954206;28;20074;-74
2022/04/19 11:05:44;;;;;;;10.50;5.40;;;;;;;19.34;32.95;101305.19;4952697;28;20114;-74
2022/04/19 11:08:24;;;;;;;7.07;4.43;;;;;;;19.49;34.42;101305.41;4953100;28;20063;-74
2022/04/19 11:11:21;;;;;;;7.20;4.35;;;;;;;19.68;34.45;101307.03;4952134;28;20035;-74
2022/04/19 11:14:15;;;;;;;10.52;6.03;;;;;;;19.70;33.78;101295.19;4943325;29;20424;-74
2022/04/19 11:16:41;;;;;;;10.25;7.00;;;;;;;19.71;32.90;101290.69;4948006;28;20028;-74
2022/04/19 11:19:33;;;;;;;9.90;6.40;;;;;;;19.88;34.14;101296.91;4934847;28;20035;-74
2022/04/19 11:21:59;;;;;;;12.23;6.28;;;;;;;20.03;33.06;101296.13;4965745;28;20400;-74
2022/04/19 11:24:59;;;;;;;9.63;5.68;;;;;;;20.12;34.13;101288.13;4948757;29;20484;-73
2022/04/19 11:27:53;;;;;;;8.52;6.15;;;;;;;20.20;33.10;101288.13;4963551;28;20070;-75
2022/04/19 11:30:20;;;;;;;11.38;6.25;;;;;;;20.20;32.63;101290.81;4948938;28;20035;-73
2022/04/19 11:32:52;;;;;;;9.20;5.93;;;;;;;20.14;32.14;101281.63;4940987;29;20004;-73
2022/04/19 11:35:18;;;;;;;10.38;5.97;;;;;;;20.39;33.22;101276.25;4942341;28;20057;-74
2022/04/19 11:37:45;;;;;;;9.05;5.68;;;;;;;20.34;31.10;101282.13;4949264;28;20496;-74
2022/04/19 11:48:52;;;;;;;11.98;6.72;;;;;;;21.00;31.51;101282.94;4951139;29;20066;-76
2022/04/19 11:51:20;;;;;;;12.13;6.30;;;;;;;20.91;30.32;101284.81;4943611;29;20031;-76
2022/04/19 11:53:46;;;;;;;7.35;5.20;;;;;;;21.11;31.03;101291.44;4944171;28;20035;-75
2022/04/19 11:56:12;;;;;;;10.20;6.47;;;;;;;21.10;31.29;101287.09;4946076;28;20070;-76
2022/04/19 11:58:41;;;;;;;11.05;5.97;;;;;;;21.08;30.57;101294.47;4951953;29;20063;-75
2022/04/19 12:01:08;;;;;;;13.15;5.85;;;;;;;21.24;31.17;101281.06;4964838;28;20471;-76